Time;durP1;ratioP1;P1;durP2;ratioP2;P2;SDS_P1;SDS_P2;PMS_P1;PMS_P2;Temp;Humidity;BMP_temperature;BMP_pressure;BME280_temperature;BME280_humidity;BME280_pressure;Samples;Min_cycle;Max_cycle;Signal;HPM_P1;HPM_P2
2023/04/09 00:01:46;;;;;;;64.75;24.85;;;;;;;;;;5086996;28;20040;-81
2023/04/09 00:04:13;;;;;;;60.65;23.25;;;;;;;;;;5112224;28;20126;-81
2023/04/09 00:06:41;;;;;;;68.65;22.77;;;;;;;;;;5112742;27;20043;-81
2023/04/09 00:09:09;;;;;;;73.13;25.25;;;;;;;;;;5111450;28;20046;-81
2023/04/09 00:12:02;;;;;;;66.18;24.00;;;;;;;;;;5110301;28;20043;-81
2023/04/09 00:14:35;;;;;;;69.18;24.40;;;;;;;;;;5111872;27;20039;-81
2023/04/09 00:17:12;;;;;;;57.35;21.48;;;;;;;;;;5111863;28;20040;-81
2023/04/09 00:19:39;;;;;;;62.60;22.52;;;;;;;;;;5112948;28;20066;-81
2023/04/09 00:22:07;;;;;;;60.17;22.48;;;;;;;;;;5108869;27;20040;-81
2023/04/09 00:24:35;;;;;;;59.05;23.00;;;;;;;;;;5110852;27;20039;-81
2023/04/09 00:27:07;;;;;;;62.88;22.65;;;;;;;;;;5094915;28;20049;-81
2023/04/09 00:29:35;;;;;;;67.82;24.20;;;;;;;;;;5111084;28;20063;-81
2023/04/09 00:32:03;;;;;;;56.47;22.45;;;;;;;;;;5072409;28;20478;-81
2023/04/09 00:34:31;;;;;;;61.67;21.55;;;;;;;;;;5090004;28;20044;-81
2023/04/09 00:36:59;;;;;;;64.82;22.55;;;;;;;;;;5073383;28;20089;-81
2023/04/09 00:39:27;;;;;;;61.67;22.73;;;;;;;;;;5078155;28;20043;-81
2023/04/09 00:42:01;;;;;;;63.42;22.90;;;;;;;;;;5091175;28;20406;-81
2023/04/09 00:44:29;;;;;;;62.05;22.17;;;;;;;;;;5093822;28;20517;-81
2023/04/09 00:47:01;;;;;;;56.97;21.13;;;;;;;;;;5089994;28;20042;-81
2023/04/09 00:49:29;;;;;;;60.35;20.58;;;;;;;;;;5087224;28;20035;-81
2023/04/09 00:54:51;;;;;;;68.45;22.20;;;;;;;;;;5086823;28;20062;-81
2023/04/09 00:57:25;;;;;;;58.17;20.63;;;;;;;;;;5101377;28;20417;-81
2023/04/09 00:59:53;;;;;;;59.85;21.08;;;;;;;;;;5093012;28;20122;-81
2023/04/09 01:02:46;;;;;;;61.72;20.83;;;;;;;;;;5109148;27;20038;-81
2023/04/09 01:05:15;;;;;;;62.88;20.00;;;;;;;;;;5110780;28;20039;-81
2023/04/09 01:08:15;;;;;;;58.75;20.52;;;;;;;;;;5110923;28;20036;-81
2023/04/09 01:11:05;;;;;;;53.65;19.90;;;;;;;;;;5093660;28;20586;-81
2023/04/09 01:14:00;;;;;;;58.22;19.52;;;;;;;;;;5084610;28;20475;-81
2023/04/09 01:16:33;;;;;;;52.15;19.02;;;;;;;;;;5107855;27;20039;-81
2023/04/09 01:19:10;;;;;;;63.50;21.58;;;;;;;;;;5110826;28;20049;-81
2023/04/09 01:21:40;;;;;;;65.95;21.70;;;;;;;;;;5075490;28;20054;-81
2023/04/09 01:24:41;;;;;;;62.67;20.30;;;;;;;;;;5099372;28;20035;-81
2023/04/09 01:27:14;;;;;;;68.70;20.63;;;;;;;;;;5092011;28;20043;-81
2023/04/09 01:32:57;;;;;;;69.90;22.42;;;;;;;;;;5110478;28;20043;-81
2023/04/09 01:35:52;;;;;;;75.18;22.58;;;;;;;;;;5099290;28;20073;-81
2023/04/09 01:38:22;;;;;;;76.03;22.38;;;;;;;;;;5088782;28;20034;-81
2023/04/09 01:40:53;;;;;;;79.25;22.92;;;;;;;;;;5108522;28;20031;-81
2023/04/09 01:43:22;;;;;;;73.68;22.73;;;;;;;;;;5093901;28;20527;-81
2023/04/09 01:45:56;;;;;;;80.68;21.17;;;;;;;;;;5108042;28;20522;-81
2023/04/09 01:48:23;;;;;;;70.55;23.60;;;;;;;;;;5108867;27;20067;-81
2023/04/09 01:50:51;;;;;;;72.70;22.00;;;;;;;;;;5088131;28;20043;-81
2023/04/09 01:53:23;;;;;;;64.95;22.15;;;;;;;;;;5108651;28;20044;-81
2023/04/09 01:55:55;;;;;;;69.82;21.80;;;;;;;;;;5089051;28;20126;-81
2023/04/09 01:58:29;;;;;;;66.47;20.67;;;;;;;;;;5109077;27;20036;-81
2023/04/09 02:01:07;;;;;;;78.53;19.85;;;;;;;;;;5087865;28;20037;-81
2023/04/09 02:04:03;;;;;;;76.78;21.73;;;;;;;;;;5107145;28;20057;-81
2023/04/09 02:06:31;;;;;;;62.78;20.90;;;;;;;;;;5092334;28;20043;-81
2023/04/09 02:09:00;;;;;;;66.80;21.38;;;;;;;;;;5107491;28;20035;-81
2023/04/09 02:11:32;;;;;;;72.53;22.35;;;;;;;;;;5089582;28;20039;-81
2023/04/09 02:14:07;;;;;;;66.47;21.95;;;;;;;;;;5087657;28;20043;-81
2023/04/09 02:16:35;;;;;;;65.30;20.75;;;;;;;;;;5092668;28;20051;-81
2023/04/09 02:19:03;;;;;;;69.50;22.38;;;;;;;;;;5091199;28;20065;-81
2023/04/09 02:21:31;;;;;;;62.75;20.85;;;;;;;;;;5082048;28;20082;-81
2023/04/09 02:23:59;;;;;;;74.60;23.13;;;;;;;;;;5108768;27;20040;-81
2023/04/09 02:26:53;;;;;;;69.15;22.63;;;;;;;;;;5109024;28;20040;-81
2023/04/09 02:29:21;;;;;;;64.65;22.70;;;;;;;;;;5087313;28;20509;-81
2023/04/09 02:31:51;;;;;;;78.13;23.98;;;;;;;;;;5108357;27;20039;-81
2023/04/09 02:34:19;;;;;;;67.75;22.30;;;;;;;;;;5107797;28;20435;-81
2023/04/09 02:36:49;;;;;;;65.50;21.58;;;;;;;;;;5109206;27;20510;-81
2023/04/09 02:39:17;;;;;;;69.65;20.83;;;;;;;;;;5085961;28;20096;-81
2023/04/09 02:41:49;;;;;;;66.25;21.13;;;;;;;;;;5089321;28;20064;-81
2023/04/09 02:45:07;;;;;;;64.20;21.58;;;;;;;;;;5091211;28;20087;-81
2023/04/09 02:47:59;;;;;;;56.35;19.10;;;;;;;;;;5091204;28;20046;-81
2023/04/09 02:50:27;;;;;;;62.22;20.38;;;;;;;;;;5098012;28;20059;-81
2023/04/09 02:52:57;;;;;;;68.07;21.67;;;;;;;;;;5092004;28;20511;-81
2023/04/09 02:55:25;;;;;;;67.70;21.40;;;;;;;;;;5108340;28;20078;-81
2023/04/09 02:57:57;;;;;;;70.40;22.75;;;;;;;;;;5108586;28;20040;-81
2023/04/09 03:00:25;;;;;;;74.25;21.60;;;;;;;;;;5106013;28;20503;-81
2023/04/09 03:02:57;;;;;;;63.67;21.83;;;;;;;;;;5107317;28;20050;-81
2023/04/09 03:05:29;;;;;;;69.75;22.27;;;;;;;;;;5091024;28;20048;-81
2023/04/09 03:07:57;;;;;;;66.05;21.80;;;;;;;;;;5091113;28;20495;-81
2023/04/09 03:10:25;;;;;;;61.80;21.05;;;;;;;;;;5110092;28;20039;-81
2023/04/09 03:12:53;;;;;;;73.00;23.30;;;;;;;;;;5085199;28;20086;-81
2023/04/09 03:15:45;;;;;;;69.68;21.88;;;;;;;;;;5106819;28;20035;-81
2023/04/09 03:18:17;;;;;;;64.22;21.40;;;;;;;;;;5108556;28;20048;-82
2023/04/09 03:21:09;;;;;;;61.63;20.60;;;;;;;;;;5090737;28;20048;-81
2023/04/09 03:23:47;;;;;;;62.03;22.08;;;;;;;;;;5084957;28;20044;-81
2023/04/09 03:26:41;;;;;;;61.80;21.38;;;;;;;;;;5090832;28;20052;-81
2023/04/09 03:29:15;;;;;;;62.63;20.63;;;;;;;;;;5106101;28;20075;-81
2023/04/09 03:31:43;;;;;;;62.47;21.83;;;;;;;;;;5090346;28;20038;-81
2023/04/09 03:34:15;;;;;;;58.50;20.73;;;;;;;;;;5108349;28;20562;-81
2023/04/09 03:36:43;;;;;;;66.13;19.38;;;;;;;;;;5107122;28;20043;-81
2023/04/09 03:39:17;;;;;;;64.38;22.08;;;;;;;;;;5068968;28;20146;-81
2023/04/09 03:41:45;;;;;;;63.80;20.38;;;;;;;;;;5091861;28;20035;-81
2023/04/09 03:44:15;;;;;;;64.60;21.42;;;;;;;;;;5090173;28;20118;-81
2023/04/09 03:46:57;;;;;;;62.67;22.33;;;;;;;;;;5086773;28;20057;-81
2023/04/09 03:49:25;;;;;;;68.82;22.63;;;;;;;;;;5071757;28;20118;-81
2023/04/09 03:51:55;;;;;;;60.13;21.10;;;;;;;;;;5073203;28;20059;-81
2023/04/09 03:54:28;;;;;;;64.00;21.05;;;;;;;;;;5105156;28;20039;-81
2023/04/09 03:56:57;;;;;;;67.63;22.70;;;;;;;;;;5085035;28;20043;-81
2023/04/09 03:59:25;;;;;;;66.38;22.88;;;;;;;;;;5072283;28;20563;-81
2023/04/09 04:01:57;;;;;;;80.82;24.10;;;;;;;;;;5106179;28;20147;-81
2023/04/09 04:04:25;;;;;;;60.63;21.20;;;;;;;;;;5084524;28;20075;-81
2023/04/09 04:06:57;;;;;;;69.38;21.60;;;;;;;;;;5071067;28;20402;-81
2023/04/09 04:09:37;;;;;;;65.00;21.15;;;;;;;;;;5085197;28;20039;-81
2023/04/09 04:12:09;;;;;;;78.38;22.38;;;;;;;;;;5108657;28;20104;-81
2023/04/09 04:14:51;;;;;;;76.28;22.88;;;;;;;;;;5090717;28;20051;-81
2023/04/09 04:17:31;;;;;;;71.93;23.05;;;;;;;;;;5107168;28;20032;-81
2023/04/09 04:20:01;;;;;;;78.32;23.08;;;;;;;;;;5092009;28;20083;-81
2023/04/09 04:22:33;;;;;;;73.65;22.10;;;;;;;;;;5090287;28;20509;-81
2023/04/09 04:25:27;;;;;;;75.57;23.23;;;;;;;;;;5108357;28;20036;-81
2023/04/09 04:27:55;;;;;;;73.72;23.65;;;;;;;;;;5073703;28;20065;-81
2023/04/09 04:30:29;;;;;;;79.63;23.60;;;;;;;;;;5088786;28;20399;-81
2023/04/09 04:33:07;;;;;;;73.95;22.45;;;;;;;;;;5090873;28;20475;-81
2023/04/09 04:36:07;;;;;;;82.47;22.83;;;;;;;;;;5093864;28;20032;-81
2023/04/09 04:38:43;;;;;;;72.65;20.80;;;;;;;;;;5084494;28;20063;-81
2023/04/09 04:41:57;;;;;;;76.03;24.35;;;;;;;;;;5082699;28;20081;-81
2023/04/09 04:44:27;;;;;;;78.55;23.73;;;;;;;;;;5087257;28;20062;-81
2023/04/09 04:47:21;;;;;;;78.88;24.08;;;;;;;;;;5106374;27;20034;-81
2023/04/09 04:49:49;;;;;;;79.45;23.17;;;;;;;;;;5111374;27;20414;-81
2023/04/09 04:52:53;;;;;;;72.38;22.23;;;;;;;;;;5087971;28;20483;-81
2023/04/09 04:55:31;;;;;;;69.70;21.40;;;;;;;;;;5087892;27;20525;-81
2023/04/09 04:58:01;;;;;;;75.03;22.77;;;;;;;;;;5059766;27;20055;-81
2023/04/09 05:00:37;;;;;;;74.53;21.83;;;;;;;;;;5087220;27;20031;-81
2023/04/09 05:03:29;;;;;;;77.78;22.67;;;;;;;;;;5111871;27;20042;-81
2023/04/09 05:06:17;;;;;;;69.75;21.85;;;;;;;;;;5097776;27;20071;-81
2023/04/09 05:09:09;;;;;;;75.32;21.08;;;;;;;;;;5110602;27;20048;-81
2023/04/09 05:11:45;;;;;;;73.03;22.85;;;;;;;;;;5094809;28;20044;-81
2023/04/09 05:17:31;;;;;;;71.07;21.10;;;;;;;;;;5083802;28;20040;-81
2023/04/09 05:19:59;;;;;;;71.85;21.63;;;;;;;;;;5091041;28;20063;-81
2023/04/09 05:22:35;;;;;;;69.72;22.00;;;;;;;;;;5074576;28;20112;-81
2023/04/09 05:25:29;;;;;;;68.97;21.40;;;;;;;;;;5112509;27;20039;-81
2023/04/09 05:27:59;;;;;;;65.63;19.85;;;;;;;;;;5099578;28;20040;-81
2023/04/09 05:30:33;;;;;;;63.38;21.20;;;;;;;;;;5086721;28;20054;-81
2023/04/09 05:33:03;;;;;;;74.05;22.23;;;;;;;;;;5088441;28;20455;-81
2023/04/09 05:35:55;;;;;;;75.32;22.40;;;;;;;;;;5108541;28;20036;-81
2023/04/09 05:38:23;;;;;;;81.07;23.27;;;;;;;;;;5092266;28;20525;-81
2023/04/09 05:40:55;;;;;;;74.63;21.88;;;;;;;;;;5075988;28;20152;-81
2023/04/09 05:43:23;;;;;;;72.15;21.58;;;;;;;;;;5109828;27;20066;-81
2023/04/09 05:45:56;;;;;;;75.85;21.58;;;;;;;;;;5111693;27;20495;-81
2023/04/09 05:48:25;;;;;;;68.10;19.90;;;;;;;;;;5092836;28;20051;-81
2023/04/09 05:50:53;;;;;;;70.43;20.88;;;;;;;;;;5092622;27;20047;-81
2023/04/09 05:53:45;;;;;;;64.95;19.48;;;;;;;;;;5088425;28;20031;-81
2023/04/09 05:56:14;;;;;;;78.65;21.70;;;;;;;;;;5092153;27;20062;-81
2023/04/09 05:58:51;;;;;;;66.68;18.77;;;;;;;;;;5109143;27;20105;-81
2023/04/09 06:01:43;;;;;;;70.85;20.23;;;;;;;;;;5079996;28;20119;-81
2023/04/09 06:04:15;;;;;;;67.35;20.75;;;;;;;;;;5108637;27;20045;-81
2023/04/09 06:06:43;;;;;;;77.35;19.58;;;;;;;;;;5100520;28;20104;-81
2023/04/09 06:09:11;;;;;;;71.70;20.73;;;;;;;;;;5091227;28;20521;-81
2023/04/09 06:12:03;;;;;;;72.90;19.52;;;;;;;;;;5091770;28;20111;-81
2023/04/09 06:14:31;;;;;;;72.20;20.17;;;;;;;;;;5092819;27;20169;-81
2023/04/09 06:16:59;;;;;;;77.88;20.23;;;;;;;;;;5071108;27;20386;-81
2023/04/09 06:19:27;;;;;;;83.47;21.77;;;;;;;;;;5086943;28;20142;-81
2023/04/09 06:21:55;;;;;;;71.47;21.70;;;;;;;;;;5092492;27;20054;-81
2023/04/09 06:24:27;;;;;;;66.85;19.40;;;;;;;;;;5098046;28;20733;-81
2023/04/09 06:27:00;;;;;;;72.72;20.55;;;;;;;;;;5091805;28;20071;-81
2023/04/09 06:29:27;;;;;;;80.20;22.50;;;;;;;;;;5108734;27;20261;-81
2023/04/09 06:31:55;;;;;;;70.00;19.95;;;;;;;;;;5108458;27;20390;-81
2023/04/09 06:34:23;;;;;;;67.32;19.90;;;;;;;;;;5108548;27;20043;-81
2023/04/09 06:37:15;;;;;;;75.45;21.00;;;;;;;;;;5109184;27;20324;-81
2023/04/09 06:39:45;;;;;;;66.07;19.95;;;;;;;;;;5109594;27;20065;-81
2023/04/09 06:42:27;;;;;;;67.65;20.10;;;;;;;;;;5107483;27;20779;-81
2023/04/09 06:45:07;;;;;;;65.10;19.05;;;;;;;;;;5105159;27;20063;-81
2023/04/09 06:47:35;;;;;;;71.80;20.63;;;;;;;;;;5085152;28;20208;-81
2023/04/09 06:50:09;;;;;;;73.78;20.95;;;;;;;;;;5075489;28;20134;-81
2023/04/09 06:58:23;;;;;;;55.33;17.63;;;;;;;;;;5109711;27;20070;-81
2023/04/09 07:00:51;;;;;;;64.40;19.23;;;;;;;;;;5089118;28;20039;-81
2023/04/09 07:03:19;;;;;;;72.68;20.27;;;;;;;;;;5108203;27;20050;-81
2023/04/09 07:05:47;;;;;;;70.72;20.98;;;;;;;;;;5082899;28;20134;-81
2023/04/09 07:09:05;;;;;;;66.30;20.58;;;;;;;;;;5080238;28;20035;-81
2023/04/09 07:11:39;;;;;;;64.80;20.08;;;;;;;;;;5110050;27;20040;-81
2023/04/09 07:14:07;;;;;;;74.32;21.23;;;;;;;;;;5106146;27;20046;-81
2023/04/09 07:16:59;;;;;;;56.58;19.67;;;;;;;;;;5105806;27;20081;-81
2023/04/09 07:19:27;;;;;;;68.68;20.08;;;;;;;;;;5109180;27;20071;-81
2023/04/09 07:21:55;;;;;;;71.35;21.92;;;;;;;;;;5109162;27;20032;-81
2023/04/09 07:24:23;;;;;;;75.45;20.35;;;;;;;;;;5107908;28;20093;-81
2023/04/09 07:26:51;;;;;;;66.85;20.38;;;;;;;;;;5085911;28;20126;-81
2023/04/09 07:32:37;;;;;;;61.33;20.95;;;;;;;;;;5105141;28;20109;-80
2023/04/09 07:35:06;;;;;;;58.33;19.55;;;;;;;;;;5107708;28;20088;-81
2023/04/09 07:37:39;;;;;;;61.97;18.25;;;;;;;;;;5085899;28;20027;-81
2023/04/09 07:40:07;;;;;;;59.67;20.45;;;;;;;;;;5098080;28;20104;-81
2023/04/09 07:42:41;;;;;;;61.95;19.58;;;;;;;;;;5106013;28;20063;-81
2023/04/09 07:45:35;;;;;;;63.60;19.33;;;;;;;;;;5093665;28;20570;-80
2023/04/09 07:48:03;;;;;;;58.55;18.80;;;;;;;;;;5106288;28;20050;-80
2023/04/09 07:50:31;;;;;;;56.22;18.15;;;;;;;;;;5105192;28;20039;-80
2023/04/09 07:52:59;;;;;;;57.70;17.42;;;;;;;;;;5106594;28;20031;-80
2023/04/09 07:55:27;;;;;;;52.28;19.20;;;;;;;;;;5087249;28;20040;-81
2023/04/09 07:57:59;;;;;;;57.85;19.92;;;;;;;;;;5104249;28;20050;-81
2023/04/09 08:00:27;;;;;;;60.30;19.67;;;;;;;;;;5083693;28;20055;-81
2023/04/09 08:03:04;;;;;;;54.97;20.15;;;;;;;;;;5089704;28;20089;-82
2023/04/09 08:05:34;;;;;;;61.25;19.65;;;;;;;;;;5106618;28;20066;-81
2023/04/09 08:08:07;;;;;;;53.75;18.27;;;;;;;;;;5083935;28;20472;-81
2023/04/09 08:10:59;;;;;;;50.95;18.13;;;;;;;;;;5107543;28;20036;-82
2023/04/09 08:13:27;;;;;;;53.63;18.13;;;;;;;;;;5089621;28;20461;-82
2023/04/09 08:15:55;;;;;;;55.15;19.45;;;;;;;;;;5105278;28;20070;-81
2023/04/09 08:18:47;;;;;;;54.38;18.25;;;;;;;;;;5109992;28;20394;-81
2023/04/09 08:21:19;;;;;;;53.50;18.48;;;;;;;;;;5089323;28;20028;-82
2023/04/09 08:23:47;;;;;;;48.28;17.58;;;;;;;;;;5108083;27;20092;-81
2023/04/09 08:26:15;;;;;;;47.50;17.70;;;;;;;;;;5111685;27;20469;-81
2023/04/09 08:28:43;;;;;;;54.50;19.10;;;;;;;;;;5111518;27;20044;-81
2023/04/09 08:31:11;;;;;;;55.97;19.40;;;;;;;;;;5090494;27;20068;-82
2023/04/09 08:33:39;;;;;;;54.83;19.55;;;;;;;;;;5092690;27;20560;-82
2023/04/09 08:36:08;;;;;;;49.67;17.10;;;;;;;;;;5084408;28;20043;-82
2023/04/09 08:38:35;;;;;;;46.20;17.25;;;;;;;;;;5090082;28;20114;-81
2023/04/09 08:41:04;;;;;;;50.33;17.40;;;;;;;;;;5084459;28;20166;-82
2023/04/09 08:43:32;;;;;;;47.85;16.73;;;;;;;;;;5091261;28;20051;-83
2023/04/09 08:46:22;;;;;;;50.15;17.05;;;;;;;;;;5095131;27;20032;-82
2023/04/09 08:48:55;;;;;;;50.88;17.50;;;;;;;;;;5060880;28;20054;-82
2023/04/09 08:51:30;;;;;;;44.10;16.35;;;;;;;;;;5106754;27;20382;-82
2023/04/09 08:53:59;;;;;;;41.15;14.90;;;;;;;;;;5110188;27;20054;-82
2023/04/09 08:56:31;;;;;;;44.53;15.68;;;;;;;;;;5072073;27;20039;-82
2023/04/09 08:58:59;;;;;;;38.70;15.30;;;;;;;;;;5108449;27;20042;-81
2023/04/09 09:01:31;;;;;;;42.63;14.45;;;;;;;;;;5107179;27;20028;-81
2023/04/09 09:04:05;;;;;;;41.20;14.98;;;;;;;;;;5086454;28;20039;-81
2023/04/09 09:06:38;;;;;;;43.10;16.23;;;;;;;;;;5084325;28;20059;-81
2023/04/09 09:09:10;;;;;;;42.30;15.52;;;;;;;;;;5098987;28;20124;-81
2023/04/09 09:11:47;;;;;;;33.97;13.27;;;;;;;;;;5108274;27;20039;-81
2023/04/09 09:14:41;;;;;;;39.03;14.38;;;;;;;;;;5093172;28;20043;-82
2023/04/09 09:17:09;;;;;;;32.20;13.27;;;;;;;;;;5090815;28;20767;-81
2023/04/09 09:19:37;;;;;;;37.30;13.63;;;;;;;;;;5111787;27;20088;-82
2023/04/09 09:22:11;;;;;;;30.27;12.77;;;;;;;;;;5092854;28;20059;-82
2023/04/09 09:24:50;;;;;;;38.33;13.55;;;;;;;;;;5110165;27;20096;-81
2023/04/09 09:27:35;;;;;;;34.70;14.25;;;;;;;;;;5087657;28;20063;-82
2023/04/09 09:30:04;;;;;;;31.45;12.88;;;;;;;;;;5092197;27;20047;-81
2023/04/09 09:32:35;;;;;;;33.10;12.77;;;;;;;;;;5085615;28;20066;-81
2023/04/09 09:35:27;;;;;;;35.75;13.60;;;;;;;;;;5112505;27;20040;-81
2023/04/09 09:38:05;;;;;;;35.58;13.38;;;;;;;;;;5110026;27;20118;-81
2023/04/09 09:41:14;;;;;;;31.50;13.52;;;;;;;;;;5094176;28;20042;-81
2023/04/09 09:43:43;;;;;;;29.92;13.05;;;;;;;;;;5102381;27;20036;-81
2023/04/09 09:46:11;;;;;;;34.28;12.20;;;;;;;;;;5104193;27;20067;-81
2023/04/09 09:48:45;;;;;;;33.38;12.65;;;;;;;;;;5089753;27;20043;-81
2023/04/09 09:51:14;;;;;;;32.00;13.20;;;;;;;;;;5092678;28;20050;-81
2023/04/09 09:53:47;;;;;;;31.35;12.18;;;;;;;;;;5108769;28;20398;-81
2023/04/09 09:56:24;;;;;;;30.77;13.43;;;;;;;;;;5109959;27;20123;-81
2023/04/09 09:59:09;;;;;;;36.72;14.43;;;;;;;;;;5104911;27;20498;-82
2023/04/09 10:01:44;;;;;;;30.98;12.00;;;;;;;;;;5091184;28;20048;-81
2023/04/09 10:04:37;;;;;;;31.30;12.75;;;;;;;;;;5070258;28;20030;-81
2023/04/09 10:07:06;;;;;;;30.52;12.77;;;;;;;;;;5107267;27;20042;-82
2023/04/09 10:09:36;;;;;;;30.42;12.40;;;;;;;;;;5087002;27;20051;-82
2023/04/09 10:12:34;;;;;;;28.77;12.57;;;;;;;;;;5110520;27;20036;-81
2023/04/09 10:15:03;;;;;;;34.42;13.75;;;;;;;;;;5110854;27;20494;-81
2023/04/09 10:17:39;;;;;;;32.47;12.88;;;;;;;;;;5075872;27;20071;-81
2023/04/09 10:20:13;;;;;;;31.00;12.02;;;;;;;;;;5112166;27;20043;-81
2023/04/09 10:22:44;;;;;;;28.63;11.70;;;;;;;;;;5106540;27;20457;-81
2023/04/09 10:25:11;;;;;;;26.55;12.00;;;;;;;;;;5109170;27;20047;-81
2023/04/09 10:27:48;;;;;;;27.17;12.52;;;;;;;;;;5087417;28;20048;-81
2023/04/09 10:30:34;;;;;;;27.40;12.30;;;;;;;;;;5101575;27;20047;-81
2023/04/09 10:33:12;;;;;;;28.00;12.73;;;;;;;;;;5107499;27;20042;-81
2023/04/09 10:35:48;;;;;;;27.05;11.98;;;;;;;;;;5112137;27;20066;-81
2023/04/09 10:38:39;;;;;;;29.13;11.70;;;;;;;;;;5107156;27;20039;-81
2023/04/09 10:41:33;;;;;;;32.30;11.80;;;;;;;;;;5110650;27;20089;-81
2023/04/09 10:44:05;;;;;;;28.23;12.82;;;;;;;;;;5105931;27;20520;-81
2023/04/09 10:46:41;;;;;;;30.40;11.55;;;;;;;;;;5087168;28;20043;-81
2023/04/09 10:49:10;;;;;;;23.38;10.18;;;;;;;;;;5087977;28;20051;-81
2023/04/09 10:52:03;;;;;;;23.60;10.88;;;;;;;;;;5090772;28;20075;-81
2023/04/09 10:54:34;;;;;;;31.20;12.70;;;;;;;;;;5092063;27;20043;-82
2023/04/09 10:57:07;;;;;;;30.52;12.40;;;;;;;;;;5067783;28;20407;-82
2023/04/09 10:59:45;;;;;;;28.80;13.00;;;;;;;;;;5110516;27;20510;-82
2023/04/09 11:02:34;;;;;;;28.40;12.85;;;;;;;;;;5103516;27;20085;-82
2023/04/09 11:05:31;;;;;;;27.52;12.02;;;;;;;;;;5094462;27;20035;-81
2023/04/09 11:08:05;;;;;;;26.83;10.93;;;;;;;;;;5107560;27;20050;-81
2023/04/09 11:10:58;;;;;;;25.58;11.93;;;;;;;;;;5091580;28;20403;-81
2023/04/09 11:13:25;;;;;;;26.83;12.05;;;;;;;;;;5107948;27;20028;-82
2023/04/09 11:16:02;;;;;;;30.08;12.43;;;;;;;;;;5106929;27;20123;-81
2023/04/09 11:18:56;;;;;;;24.33;12.38;;;;;;;;;;5108430;27;20800;-82
2023/04/09 11:21:30;;;;;;;33.85;13.35;;;;;;;;;;5109934;27;20138;-81
2023/04/09 11:23:57;;;;;;;32.65;13.30;;;;;;;;;;5099345;28;20040;-82
2023/04/09 11:26:34;;;;;;;27.33;10.77;;;;;;;;;;5109201;27;20047;-82
2023/04/09 11:29:09;;;;;;;27.13;13.05;;;;;;;;;;5108229;27;20075;-81
2023/04/09 11:31:43;;;;;;;26.45;12.52;;;;;;;;;;5103663;28;20040;-81
2023/04/09 11:34:11;;;;;;;23.05;10.30;;;;;;;;;;5104858;27;20082;-82
2023/04/09 11:37:07;;;;;;;27.00;11.50;;;;;;;;;;5108238;27;20048;-81
2023/04/09 11:39:43;;;;;;;30.55;12.68;;;;;;;;;;5091334;28;20039;-81
2023/04/09 11:42:14;;;;;;;28.50;11.25;;;;;;;;;;5088998;28;20051;-82
2023/04/09 11:45:08;;;;;;;29.10;12.23;;;;;;;;;;5065129;28;20042;-82
2023/04/09 11:47:42;;;;;;;29.98;12.65;;;;;;;;;;5091008;28;20032;-81
2023/04/09 11:50:12;;;;;;;29.92;12.27;;;;;;;;;;5108386;28;20384;-82
2023/04/09 11:56:09;;;;;;;25.85;10.60;;;;;;;;;;5107986;27;20072;-82
2023/04/09 11:58:46;;;;;;;31.75;13.48;;;;;;;;;;5094099;28;20061;-82
2023/04/09 12:01:13;;;;;;;30.95;13.35;;;;;;;;;;5075563;28;20100;-82
2023/04/09 12:03:41;;;;;;;27.75;11.43;;;;;;;;;;5094243;27;20028;-82
2023/04/09 12:06:09;;;;;;;27.42;12.00;;;;;;;;;;5109954;27;20143;-82
2023/04/09 12:08:38;;;;;;;29.67;12.88;;;;;;;;;;5091900;28;20046;-82
2023/04/09 12:11:12;;;;;;;30.75;13.13;;;;;;;;;;5074236;28;20379;-82
2023/04/09 12:13:41;;;;;;;28.70;12.13;;;;;;;;;;5094649;28;20578;-82
2023/04/09 12:16:35;;;;;;;25.00;10.73;;;;;;;;;;5110576;27;20040;-82
2023/04/09 12:19:27;;;;;;;28.60;11.65;;;;;;;;;;5112396;27;20070;-82
2023/04/09 12:21:59;;;;;;;29.00;12.25;;;;;;;;;;5094462;28;20035;-82
2023/04/09 12:24:27;;;;;;;28.75;11.43;;;;;;;;;;5074708;28;20732;-81
2023/04/09 12:26:56;;;;;;;26.65;11.90;;;;;;;;;;5091777;28;20063;-82
2023/04/09 12:29:24;;;;;;;25.55;12.07;;;;;;;;;;5111604;27;20092;-82
2023/04/09 12:31:58;;;;;;;23.70;9.38;;;;;;;;;;5093782;27;20040;-82
2023/04/09 12:34:26;;;;;;;28.13;12.82;;;;;;;;;;5111150;27;20043;-82
2023/04/09 12:37:19;;;;;;;29.00;13.00;;;;;;;;;;5114300;27;20046;-81
2023/04/09 12:39:51;;;;;;;28.45;12.63;;;;;;;;;;5101045;28;20048;-81
2023/04/09 12:42:28;;;;;;;27.42;13.15;;;;;;;;;;5115163;27;20036;-81
2023/04/09 12:45:35;;;;;;;27.40;12.82;;;;;;;;;;5075479;27;20047;-82
2023/04/09 12:48:03;;;;;;;29.95;13.00;;;;;;;;;;5093537;27;20436;-82
2023/04/09 12:51:14;;;;;;;28.90;11.95;;;;;;;;;;5095909;27;20027;-81
2023/04/09 12:54:23;;;;;;;27.92;12.27;;;;;;;;;;5110646;27;20042;-81
2023/04/09 12:56:56;;;;;;;30.88;12.70;;;;;;;;;;5090085;27;20031;-82
2023/04/09 12:59:43;;;;;;;22.95;10.75;;;;;;;;;;5088023;27;21189;-83
2023/04/09 13:02:35;;;;;;;33.05;13.15;;;;;;;;;;5078853;27;20035;-81
2023/04/09 13:05:50;;;;;;;25.95;11.98;;;;;;;;;;5113747;27;20035;-81
2023/04/09 13:08:37;;;;;;;22.60;11.10;;;;;;;;;;5093241;27;20467;-82
2023/04/09 13:11:14;;;;;;;26.30;13.18;;;;;;;;;;5114018;27;20051;-82
2023/04/09 13:14:42;;;;;;;28.77;13.00;;;;;;;;;;5071566;27;20051;-82
2023/04/09 13:17:49;;;;;;;25.45;11.70;;;;;;;;;;5091162;27;20051;-82
2023/04/09 13:20:45;;;;;;;23.55;10.98;;;;;;;;;;5072648;27;20040;-82
2023/04/09 13:23:39;;;;;;;30.17;10.20;;;;;;;;;;5077670;28;20027;-82
2023/04/09 13:26:07;;;;;;;24.30;10.32;;;;;;;;;;5110235;27;20055;-82
2023/04/09 13:28:39;;;;;;;27.15;11.45;;;;;;;;;;5100608;27;20039;-82
2023/04/09 13:31:12;;;;;;;25.65;12.38;;;;;;;;;;5092878;27;20508;-82
2023/04/09 13:33:39;;;;;;;25.75;11.88;;;;;;;;;;5087752;27;20065;-82
2023/04/09 13:36:13;;;;;;;28.02;12.40;;;;;;;;;;5086859;27;20154;-82
2023/04/09 13:38:45;;;;;;;27.60;12.05;;;;;;;;;;5107492;27;20070;-82
2023/04/09 13:41:14;;;;;;;25.73;11.65;;;;;;;;;;5096900;27;20494;-82
2023/04/09 13:43:47;;;;;;;27.75;12.20;;;;;;;;;;5110856;27;20054;-82
2023/04/09 13:46:15;;;;;;;28.52;12.15;;;;;;;;;;5090882;27;20452;-82
2023/04/09 13:48:47;;;;;;;27.90;12.73;;;;;;;;;;5110749;27;20042;-82
2023/04/09 13:51:15;;;;;;;25.38;12.13;;;;;;;;;;5076036;28;20043;-82
2023/04/09 13:54:12;;;;;;;30.15;13.23;;;;;;;;;;5091586;28;20407;-82
2023/04/09 13:56:41;;;;;;;23.92;11.88;;;;;;;;;;5046347;28;20094;-82
2023/04/09 13:59:10;;;;;;;27.20;12.30;;;;;;;;;;5041971;28;20057;-82
2023/04/09 14:01:43;;;;;;;25.52;12.65;;;;;;;;;;5024752;28;20138;-83
2023/04/09 14:04:11;;;;;;;26.17;11.07;;;;;;;;;;5045666;28;20052;-82
2023/04/09 14:06:39;;;;;;;26.27;12.27;;;;;;;;;;5046032;28;20066;-83
2023/04/09 14:09:11;;;;;;;23.80;10.20;;;;;;;;;;5030084;28;20125;-82
2023/04/09 14:12:04;;;;;;;26.55;11.80;;;;;;;;;;5045069;28;20136;-82
2023/04/09 14:14:33;;;;;;;28.38;12.52;;;;;;;;;;5043819;28;20055;-84
2023/04/09 14:17:07;;;;;;;26.23;11.65;;;;;;;;;;5010240;28;20072;-83
2023/04/09 14:19:35;;;;;;;28.05;12.63;;;;;;;;;;5028739;28;20041;-82
2023/04/09 14:22:03;;;;;;;25.75;12.35;;;;;;;;;;5043399;28;20051;-82
2023/04/09 14:24:55;;;;;;;27.92;12.43;;;;;;;;;;5042727;28;20046;-82
2023/04/09 14:27:27;;;;;;;24.98;12.43;;;;;;;;;;5028711;28;20049;-82
2023/04/09 14:29:55;;;;;;;23.92;11.27;;;;;;;;;;5042565;28;20075;-82
2023/04/09 14:32:27;;;;;;;24.15;12.23;;;;;;;;;;5029935;28;20045;-81
2023/04/09 14:34:55;;;;;;;26.52;12.10;;;;;;;;;;5088320;28;20081;-82
2023/04/09 14:37:27;;;;;;;29.80;12.15;;;;;;;;;;5109374;27;20131;-81
2023/04/09 14:39:55;;;;;;;25.92;13.40;;;;;;;;;;5092595;28;20081;-82
2023/04/09 14:42:23;;;;;;;24.90;12.25;;;;;;;;;;5074152;28;20445;-82
2023/04/09 14:45:15;;;;;;;25.27;11.57;;;;;;;;;;5107909;27;20036;-82
2023/04/09 14:47:47;;;;;;;28.20;11.98;;;;;;;;;;5085169;28;20497;-82
2023/04/09 14:50:15;;;;;;;23.05;11.35;;;;;;;;;;5109580;27;20064;-81
2023/04/09 14:52:46;;;;;;;28.90;13.00;;;;;;;;;;5085864;27;20039;-82
2023/04/09 14:55:37;;;;;;;25.40;11.73;;;;;;;;;;5108816;28;20114;-82
2023/04/09 14:58:11;;;;;;;26.00;12.98;;;;;;;;;;5092467;28;20092;-82
2023/04/09 15:00:40;;;;;;;28.05;11.70;;;;;;;;;;5092952;27;20040;-82
2023/04/09 15:03:33;;;;;;;25.15;11.48;;;;;;;;;;5092007;28;20036;-81
2023/04/09 15:06:01;;;;;;;28.40;12.57;;;;;;;;;;5076525;27;20050;-82
2023/04/09 15:08:29;;;;;;;20.08;8.23;;;;;;;;;;5055062;28;20063;-82
2023/04/09 15:10:57;;;;;;;23.65;11.07;;;;;;;;;;5068243;28;20531;-82
2023/04/09 15:13:25;;;;;;;32.13;12.00;;;;;;;;;;5100700;28;20043;-82
2023/04/09 15:15:53;;;;;;;26.13;12.55;;;;;;;;;;5089017;28;20065;-82
2023/04/09 15:18:21;;;;;;;29.00;12.63;;;;;;;;;;5078605;28;20127;-82
2023/04/09 15:20:49;;;;;;;24.40;10.68;;;;;;;;;;5110265;27;20507;-82
2023/04/09 15:23:17;;;;;;;27.58;12.50;;;;;;;;;;5095243;28;20038;-83
2023/04/09 15:25:45;;;;;;;27.40;11.43;;;;;;;;;;5088279;28;20044;-83
2023/04/09 15:28:23;;;;;;;28.95;12.45;;;;;;;;;;5106842;27;20035;-82